createdAt,value
2022-08-08T00:02:29.896Z,2.00
2022-08-08T00:04:52.992Z,1.97
2022-08-08T00:07:30.450Z,1.83
2022-08-08T00:10:06.400Z,1.90
2022-08-08T00:12:48.552Z,1.53
2022-08-08T00:15:56.675Z,1.83
2022-08-08T00:18:22.271Z,1.90
2022-08-08T00:20:53.776Z,1.90
2022-08-08T00:23:42.265Z,2.20
2022-08-08T00:26:13.833Z,1.80
2022-08-08T00:28:54.558Z,2.10
2022-08-08T00:32:16.440Z,1.90
2022-08-08T00:34:50.516Z,1.80
2022-08-08T00:37:47.996Z,2.17
2022-08-08T00:41:10.145Z,1.93
2022-08-08T00:44:01.394Z,1.90
2022-08-08T00:46:58.173Z,1.87
2022-08-08T00:49:59.351Z,2.13
2022-08-08T00:52:48.540Z,2.40
2022-08-08T00:55:59.204Z,2.20
2022-08-08T00:58:59.220Z,1.90
2022-08-08T01:01:38.744Z,2.33
2022-08-08T01:04:29.690Z,2.20
2022-08-08T01:07:54.778Z,2.00
2022-08-08T01:10:55.049Z,2.07
2022-08-08T01:14:16.106Z,2.10
2022-08-08T01:17:17.565Z,2.53
2022-08-08T01:20:29.949Z,2.40
2022-08-08T01:24:05.869Z,2.30
2022-08-08T01:26:54.500Z,2.60
2022-08-08T01:29:59.696Z,2.40
2022-08-08T01:33:01.406Z,2.27
2022-08-08T01:36:15.032Z,2.17
2022-08-08T01:39:23.434Z,2.30
2022-08-08T01:41:59.938Z,2.40
2022-08-08T01:44:38.913Z,2.60
2022-08-08T01:48:15.507Z,2.63
2022-08-08T01:50:10.819Z,2.53
2022-08-08T01:56:30.837Z,2.67
2022-08-08T01:59:12.905Z,2.80
2022-08-08T02:02:05.016Z,2.53
2022-08-08T02:04:42.998Z,2.77
2022-08-08T02:07:19.654Z,2.60
2022-08-08T02:10:13.451Z,3.50
2022-08-08T02:13:03.953Z,2.77
2022-08-08T02:15:38.985Z,2.70
2022-08-08T02:18:14.933Z,2.70
2022-08-08T02:21:17.878Z,3.10
2022-08-08T02:23:54.656Z,3.07
2022-08-08T02:26:28.692Z,2.70
2022-08-08T02:29:19.070Z,2.70
2022-08-08T02:32:22.291Z,2.73
2022-08-08T02:35:14.943Z,2.70
2022-08-08T02:38:25.472Z,2.97
2022-08-08T02:41:59.183Z,3.00
2022-08-08T02:44:56.862Z,3.47
2022-08-08T02:47:51.920Z,3.10
2022-08-08T02:51:03.233Z,3.57
2022-08-08T02:53:50.776Z,3.20
2022-08-08T02:56:46.741Z,3.30
2022-08-08T02:59:58.317Z,3.30
2022-08-08T03:05:00.679Z,3.47
2022-08-08T03:06:34.773Z,3.20
2022-08-08T03:09:41.335Z,3.13
2022-08-08T03:13:01.175Z,3.33
2022-08-08T03:16:14.272Z,2.60
2022-08-08T03:19:23.193Z,3.23
2022-08-08T03:21:58.660Z,2.80
2022-08-08T03:24:30.243Z,3.53
2022-08-08T03:27:07.955Z,3.20
2022-08-08T03:29:55.979Z,3.80
2022-08-08T03:32:53.403Z,2.90
2022-08-08T03:35:33.126Z,3.17
2022-08-08T03:38:55.717Z,3.40
2022-08-08T03:40:53.661Z,3.30
2022-08-08T03:43:23.397Z,2.70
2022-08-08T03:46:04.828Z,3.00
2022-08-08T03:49:38.303Z,3.37
2022-08-08T03:51:47.104Z,3.37
2022-08-08T03:54:41.372Z,3.33
2022-08-08T03:58:34.699Z,3.23
2022-08-08T04:00:11.446Z,3.20
2022-08-08T04:02:51.594Z,3.20
2022-08-08T04:05:22.862Z,3.17
2022-08-08T04:07:58.342Z,2.97
2022-08-08T04:10:31.839Z,3.17
2022-08-08T04:13:08.236Z,3.10
2022-08-08T04:15:55.164Z,3.23
2022-08-08T04:18:44.762Z,3.40
2022-08-08T04:21:23.000Z,3.13
2022-08-08T04:24:11.960Z,3.20
2022-08-08T04:26:58.051Z,3.30
2022-08-08T04:29:37.138Z,3.13
2022-08-08T04:32:07.666Z,3.10
2022-08-08T04:34:49.590Z,3.17
2022-08-08T04:37:31.564Z,3.20
2022-08-08T04:40:06.878Z,2.90
2022-08-08T04:42:37.228Z,2.80
2022-08-08T04:45:08.995Z,3.43
2022-08-08T04:47:46.218Z,3.73
2022-08-08T04:50:25.197Z,3.33
2022-08-08T04:53:05.016Z,3.33
2022-08-08T04:55:55.424Z,3.07
2022-08-08T04:58:24.412Z,3.10
2022-08-08T05:00:54.527Z,3.50
2022-08-08T05:04:08.982Z,3.03
2022-08-08T05:06:13.018Z,3.47
2022-08-08T05:08:51.542Z,3.47
2022-08-08T05:11:24.165Z,3.00
2022-08-08T05:13:58.560Z,3.10
2022-08-08T05:16:54.928Z,3.37
2022-08-08T05:20:09.196Z,3.47
2022-08-08T05:22:10.125Z,3.20
2022-08-08T05:24:40.274Z,2.80
2022-08-08T05:27:09.475Z,2.73
2022-08-08T05:29:38.040Z,2.87
2022-08-08T05:32:12.651Z,2.80
2022-08-08T05:34:44.460Z,2.87
2022-08-08T05:37:18.696Z,2.73
2022-08-08T05:39:52.905Z,2.80
2022-08-08T05:42:25.556Z,2.63
2022-08-08T05:44:55.197Z,2.40
2022-08-08T05:47:52.810Z,3.30
2022-08-08T05:50:20.366Z,2.70
2022-08-08T05:52:49.752Z,2.80
2022-08-08T05:55:18.145Z,2.70
2022-08-08T05:58:04.292Z,2.43
2022-08-08T06:00:35.682Z,2.60
2022-08-08T06:03:13.247Z,2.50
2022-08-08T06:05:56.685Z,2.43
2022-08-08T06:08:34.760Z,2.50
2022-08-08T06:11:05.639Z,2.30
2022-08-08T06:13:36.565Z,2.27
2022-08-08T06:16:16.146Z,2.17
2022-08-08T06:18:50.263Z,2.60
2022-08-08T06:21:28.562Z,2.37
2022-08-08T06:24:05.126Z,2.33
2022-08-08T06:26:50.456Z,2.10
2022-08-08T06:29:56.425Z,2.20
2022-08-08T06:32:18.490Z,1.80
2022-08-08T06:34:56.098Z,1.97
2022-08-08T06:37:40.447Z,1.93
2022-08-08T06:40:16.497Z,1.80
2022-08-08T06:42:56.979Z,2.00
2022-08-08T06:45:26.786Z,4.03
2022-08-08T06:48:01.392Z,2.27
2022-08-08T06:50:38.137Z,2.20
2022-08-08T06:53:17.261Z,1.67
2022-08-08T06:56:02.445Z,2.10
2022-08-08T06:58:33.272Z,1.77
2022-08-08T07:01:11.493Z,1.97
2022-08-08T07:04:36.406Z,1.57
2022-08-08T07:06:48.908Z,2.00
2022-08-08T07:09:21.647Z,1.60
2022-08-08T07:11:52.200Z,1.90
2022-08-08T07:14:27.025Z,1.47
2022-08-08T07:17:09.363Z,1.50
2022-08-08T07:19:45.554Z,2.23
2022-08-08T07:22:19.766Z,1.87
2022-08-08T07:24:53.993Z,1.97
2022-08-08T07:27:27.866Z,1.70
2022-08-08T07:30:19.641Z,1.80
2022-08-08T07:32:55.227Z,1.70
2022-08-08T07:35:29.447Z,1.83
2022-08-08T07:38:09.649Z,1.77
2022-08-08T07:40:41.787Z,2.50
2022-08-08T07:43:13.878Z,1.87
2022-08-08T07:46:05.902Z,1.80
2022-08-08T07:48:34.184Z,2.03
2022-08-08T07:51:05.505Z,1.97
2022-08-08T07:54:02.201Z,1.67
2022-08-08T07:56:36.729Z,1.80
2022-08-08T07:59:10.479Z,1.93
2022-08-08T08:02:32.926Z,1.70
2022-08-08T08:04:35.885Z,1.97
2022-08-08T08:07:11.948Z,1.53
2022-08-08T08:09:42.938Z,1.50
2022-08-08T08:12:31.474Z,1.80
2022-08-08T08:15:05.767Z,1.90
2022-08-08T08:17:44.230Z,1.80
2022-08-08T08:20:19.532Z,2.30
2022-08-08T08:22:49.802Z,2.20
2022-08-08T08:25:43.116Z,1.80
2022-08-08T08:28:09.423Z,2.10
2022-08-08T08:30:40.114Z,1.77
2022-08-08T08:33:11.034Z,1.83
2022-08-08T08:36:18.497Z,1.67
2022-08-08T08:38:33.806Z,1.90
2022-08-08T08:41:13.041Z,1.87
2022-08-08T08:43:48.622Z,1.97
2022-08-08T08:46:19.630Z,1.80
2022-08-08T08:49:01.067Z,1.60
2022-08-08T08:51:34.118Z,1.80
2022-08-08T08:54:06.688Z,1.80
2022-08-08T08:56:42.637Z,1.50
2022-08-08T08:59:17.238Z,1.60
2022-08-08T09:01:54.982Z,1.90
2022-08-08T09:04:31.108Z,2.03
2022-08-08T09:07:12.801Z,1.77
2022-08-08T09:09:48.056Z,1.63
2022-08-08T09:12:21.499Z,1.97
2022-08-08T09:14:51.557Z,1.80
2022-08-08T09:17:31.700Z,2.03
2022-08-08T09:21:56.005Z,1.83
2022-08-08T09:23:00.355Z,2.47
2022-08-08T09:25:35.957Z,2.03
2022-08-08T09:28:31.601Z,1.63
2022-08-08T09:31:12.516Z,1.73
2022-08-08T09:34:28.445Z,1.77
2022-08-08T09:36:36.022Z,1.50
2022-08-08T09:39:10.214Z,1.90
2022-08-08T09:41:54.754Z,2.10
2022-08-08T09:45:03.992Z,1.50
2022-08-08T09:48:04.553Z,1.60
2022-08-08T09:50:28.241Z,1.40
2022-08-08T09:53:02.227Z,2.03
2022-08-08T09:56:05.072Z,1.47
2022-08-08T09:58:40.376Z,1.63
2022-08-08T10:01:15.426Z,2.13
2022-08-08T10:04:02.500Z,1.80
2022-08-08T10:06:35.972Z,1.97
2022-08-08T10:09:08.375Z,1.70
2022-08-08T10:12:27.697Z,1.80
2022-08-08T10:14:38.392Z,1.70
2022-08-08T10:17:56.559Z,1.60
2022-08-08T10:20:04.406Z,1.23
2022-08-08T10:22:33.532Z,1.60
2022-08-08T10:25:16.196Z,1.67
2022-08-08T10:27:45.388Z,1.60
2022-08-08T10:30:59.717Z,1.87
2022-08-08T10:33:12.295Z,1.40
2022-08-08T10:36:09.452Z,1.57
2022-08-08T10:38:32.349Z,1.50
2022-08-08T10:41:04.455Z,1.13
2022-08-08T10:43:40.305Z,1.43
2022-08-08T10:46:30.006Z,1.80
2022-08-08T10:49:00.550Z,2.70
2022-08-08T10:51:31.167Z,1.67
2022-08-08T10:54:10.417Z,1.13
2022-08-08T10:56:43.227Z,1.20
2022-08-08T10:59:14.005Z,1.53
2022-08-08T11:01:49.634Z,1.60
2022-08-08T11:04:29.554Z,1.50
2022-08-08T11:07:07.373Z,1.60
2022-08-08T11:09:37.268Z,1.43
2022-08-08T11:12:13.162Z,1.23
2022-08-08T11:14:52.967Z,1.30
2022-08-08T11:17:59.606Z,1.23
2022-08-08T11:20:18.026Z,1.60
2022-08-08T11:22:52.462Z,1.23
2022-08-08T11:25:46.237Z,1.30
2022-08-08T11:28:14.915Z,1.43
2022-08-08T11:30:50.506Z,1.37
2022-08-08T11:33:22.818Z,1.60
2022-08-08T11:36:14.344Z,1.53
2022-08-08T11:38:54.101Z,1.57
2022-08-08T11:41:24.463Z,1.33
2022-08-08T11:43:53.167Z,1.50
2022-08-08T11:46:24.568Z,1.40
2022-08-08T11:48:53.459Z,1.80
2022-08-08T11:51:39.200Z,1.43
2022-08-08T11:54:27.111Z,1.57
2022-08-08T11:56:58.454Z,2.70
2022-08-08T12:00:01.561Z,1.43
2022-08-08T12:02:33.176Z,2.00
2022-08-08T12:05:13.285Z,1.27
2022-08-08T12:07:51.213Z,1.53
2022-08-08T12:10:21.336Z,1.87
2022-08-08T12:12:51.770Z,1.30
2022-08-08T12:15:30.806Z,1.40
2022-08-08T12:18:20.598Z,1.50
2022-08-08T12:20:50.679Z,4.60
2022-08-08T12:23:43.840Z,1.73
2022-08-08T12:26:28.555Z,1.60
2022-08-08T12:29:19.909Z,1.63
2022-08-08T12:31:53.710Z,1.53
2022-08-08T12:34:38.225Z,1.50
2022-08-08T12:37:08.198Z,1.73
2022-08-08T12:40:00.019Z,1.40
2022-08-08T12:42:32.977Z,2.00
2022-08-08T12:45:53.636Z,1.37
2022-08-08T12:48:10.070Z,1.17
2022-08-08T12:50:50.826Z,1.23
2022-08-08T12:53:30.016Z,1.67
2022-08-08T12:56:17.969Z,0.90
2022-08-08T12:58:50.506Z,1.20
2022-08-08T13:01:28.838Z,1.43
2022-08-08T13:04:18.422Z,1.23
2022-08-08T13:07:00.591Z,1.10
2022-08-08T13:10:00.912Z,1.17
2022-08-08T13:12:32.907Z,1.37
2022-08-08T13:15:03.738Z,4.37
2022-08-08T13:18:07.959Z,1.50
2022-08-08T13:20:27.122Z,0.97
2022-08-08T13:25:50.161Z,1.47
2022-08-08T13:28:32.784Z,1.13
2022-08-08T13:31:03.975Z,1.30
2022-08-08T13:33:42.209Z,0.87
2022-08-08T13:36:11.940Z,1.07
2022-08-08T13:38:40.834Z,0.97
2022-08-08T13:41:15.939Z,1.30
2022-08-08T13:43:49.986Z,0.97
2022-08-08T13:46:27.371Z,1.07
2022-08-08T13:49:11.821Z,1.27
2022-08-08T13:52:00.886Z,0.90
2022-08-08T13:54:32.116Z,1.20
2022-08-08T13:57:01.938Z,0.83
2022-08-08T13:59:33.224Z,1.00
2022-08-08T14:02:07.292Z,1.47
2022-08-08T14:04:36.098Z,0.80
2022-08-08T14:07:05.792Z,1.00
2022-08-08T14:10:05.883Z,1.10
2022-08-08T14:12:30.545Z,1.13
2022-08-08T14:15:00.807Z,1.20
2022-08-08T14:17:58.926Z,1.43
2022-08-08T14:20:55.874Z,1.00
2022-08-08T14:23:21.327Z,0.83
2022-08-08T14:26:10.338Z,1.37
2022-08-08T14:28:40.265Z,1.27
2022-08-08T14:31:23.927Z,0.67
2022-08-08T14:34:02.598Z,1.10
2022-08-08T14:36:35.386Z,1.20
2022-08-08T14:39:07.031Z,0.97
2022-08-08T14:41:54.184Z,1.30
2022-08-08T14:44:33.707Z,1.60
2022-08-08T14:47:16.977Z,1.70
2022-08-08T14:50:06.808Z,1.20
2022-08-08T14:52:46.859Z,1.13
2022-08-08T14:55:16.392Z,1.40
2022-08-08T14:58:02.861Z,1.10
2022-08-08T15:00:35.417Z,1.20
2022-08-08T15:03:15.734Z,3.03
2022-08-08T15:05:53.273Z,1.17
2022-08-08T15:08:35.385Z,1.73
2022-08-08T15:11:09.416Z,1.73
2022-08-08T15:14:00.657Z,1.20
2022-08-08T15:16:28.850Z,1.10
2022-08-08T15:18:58.473Z,1.00
2022-08-08T15:21:30.006Z,1.00
2022-08-08T15:23:58.504Z,1.30
2022-08-08T15:26:30.804Z,1.00
2022-08-08T15:28:58.909Z,1.27
2022-08-08T15:32:03.740Z,1.30
2022-08-08T15:34:29.696Z,1.97
2022-08-08T15:37:01.804Z,1.37
2022-08-08T15:39:37.987Z,1.13
2022-08-08T15:42:10.389Z,1.10
2022-08-08T15:44:42.092Z,1.40
2022-08-08T15:47:16.106Z,1.17
2022-08-08T15:49:49.938Z,1.47
2022-08-08T15:52:22.218Z,1.40
2022-08-08T15:54:51.790Z,1.37
2022-08-08T15:57:21.637Z,1.07
2022-08-08T16:00:17.987Z,1.30
2022-08-08T16:02:44.616Z,1.70
2022-08-08T16:05:23.617Z,1.37
2022-08-08T16:07:54.181Z,2.23
2022-08-08T16:13:20.431Z,2.40
2022-08-08T16:13:43.659Z,1.40
2022-08-08T16:16:09.092Z,1.80
2022-08-08T16:18:41.717Z,2.45
2022-08-08T16:21:26.049Z,6.33
2022-08-08T16:23:56.140Z,1.80
2022-08-08T16:26:33.661Z,1.47
2022-08-08T16:29:08.060Z,1.40
2022-08-08T16:31:41.008Z,1.60
2022-08-08T16:34:10.178Z,1.40
2022-08-08T16:36:40.749Z,1.57
2022-08-08T16:39:28.211Z,1.50
2022-08-08T16:42:00.821Z,1.27
2022-08-08T16:44:33.946Z,1.80
2022-08-08T16:47:21.640Z,1.67
2022-08-08T16:50:00.066Z,1.87
2022-08-08T16:55:04.912Z,2.17
2022-08-08T16:55:33.876Z,1.60
2022-08-08T16:58:13.999Z,1.70
2022-08-08T17:00:48.991Z,1.70
2022-08-08T17:03:25.137Z,1.80
2022-08-08T17:06:35.584Z,1.70
2022-08-08T17:08:57.441Z,1.43
2022-08-08T17:11:28.280Z,2.00
2022-08-08T17:14:11.636Z,1.83
2022-08-08T17:16:51.728Z,2.00
2022-08-08T17:19:26.280Z,2.30
2022-08-08T17:21:54.928Z,2.30
2022-08-08T17:24:29.935Z,2.17
2022-08-08T17:26:59.096Z,2.10
2022-08-08T17:29:27.523Z,2.37
2022-08-08T17:31:57.577Z,2.07
2022-08-08T17:34:49.252Z,1.90
2022-08-08T17:37:14.482Z,1.77
2022-08-08T17:40:03.572Z,2.23
2022-08-08T17:42:32.711Z,1.83
2022-08-08T17:45:01.330Z,1.93
2022-08-08T17:47:40.644Z,2.07
2022-08-08T17:50:10.341Z,1.80
2022-08-08T17:52:43.346Z,1.93
2022-08-08T17:56:05.335Z,1.70
2022-08-08T17:58:05.177Z,2.17
2022-08-08T18:00:33.258Z,1.80
2022-08-08T18:03:13.065Z,2.10
2022-08-08T18:05:48.916Z,1.97
2022-08-08T18:08:24.434Z,2.23
2022-08-08T18:11:11.460Z,1.70
2022-08-08T18:13:41.949Z,1.70
2022-08-08T18:16:11.495Z,1.83
2022-08-08T18:18:45.552Z,2.10
2022-08-08T18:21:34.578Z,3.73
2022-08-08T18:24:17.434Z,2.27
2022-08-08T18:26:55.042Z,1.50
2022-08-08T18:29:27.420Z,1.80
2022-08-08T18:31:58.706Z,2.73
2022-08-08T18:34:27.872Z,1.63
2022-08-08T18:36:56.498Z,1.60
2022-08-08T18:39:28.716Z,2.00
2022-08-08T18:42:03.266Z,1.60
2022-08-08T18:44:34.603Z,1.70
2022-08-08T18:47:04.960Z,1.53
2022-08-08T18:49:57.263Z,2.17
2022-08-08T18:52:23.310Z,1.97
2022-08-08T18:55:01.006Z,2.50
2022-08-08T18:57:45.157Z,1.77
2022-08-08T19:00:20.236Z,2.03
2022-08-08T19:02:55.606Z,1.67
2022-08-08T19:05:31.749Z,1.50
2022-08-08T19:08:25.387Z,1.97
2022-08-08T19:10:59.655Z,2.23
2022-08-08T19:13:52.683Z,1.73
2022-08-08T19:16:20.325Z,1.80
2022-08-08T19:19:00.562Z,1.83
2022-08-08T19:21:33.579Z,1.50
2022-08-08T19:24:39.384Z,1.60
2022-08-08T19:27:05.935Z,1.83
2022-08-08T19:29:42.168Z,1.27
2022-08-08T19:32:13.147Z,3.80
2022-08-08T19:34:49.418Z,2.30
2022-08-08T19:37:42.025Z,1.93
2022-08-08T19:40:16.258Z,1.67
2022-08-08T19:42:45.470Z,1.67
2022-08-08T19:45:57.685Z,1.90
2022-08-08T19:48:03.373Z,2.43
2022-08-08T19:50:33.238Z,1.63
2022-08-08T19:53:01.420Z,1.40
2022-08-08T19:55:34.048Z,1.80
2022-08-08T19:58:02.771Z,1.80
2022-08-08T20:00:34.668Z,1.50
2022-08-08T20:03:15.134Z,1.40
2022-08-08T20:06:14.703Z,1.53
2022-08-08T20:08:47.794Z,1.60
2022-08-08T20:11:16.869Z,1.70
2022-08-08T20:14:31.690Z,1.60
2022-08-08T20:16:40.464Z,1.40
2022-08-08T20:19:09.307Z,1.70
2022-08-08T20:21:38.245Z,2.03
2022-08-08T20:24:07.893Z,1.70
2022-08-08T20:26:38.385Z,1.73
2022-08-08T20:29:11.131Z,1.77
2022-08-08T20:32:06.802Z,1.43
2022-08-08T20:34:31.826Z,1.70
2022-08-08T20:37:02.461Z,1.77
2022-08-08T20:39:39.149Z,1.80
2022-08-08T20:42:17.843Z,2.30
2022-08-08T20:44:48.556Z,2.10
2022-08-08T20:47:23.932Z,1.60
2022-08-08T20:49:54.360Z,1.80
2022-08-08T20:52:25.201Z,1.87
2022-08-08T20:54:53.386Z,1.53
2022-08-08T20:57:21.920Z,1.93
2022-08-08T20:59:50.208Z,1.73
2022-08-08T21:02:25.549Z,2.00
2022-08-08T21:04:56.259Z,2.00
2022-08-08T21:07:47.607Z,1.93
2022-08-08T21:10:13.759Z,2.00
2022-08-08T21:12:44.648Z,2.00
2022-08-08T21:15:16.503Z,1.63
2022-08-08T21:18:04.429Z,2.17
2022-08-08T21:20:34.180Z,1.93
2022-08-08T21:23:02.538Z,1.93
2022-08-08T21:25:36.179Z,1.83
2022-08-08T21:28:16.049Z,1.67
2022-08-08T21:30:45.354Z,1.63
2022-08-08T21:33:20.771Z,1.93
2022-08-08T21:36:19.230Z,1.80
2022-08-08T21:38:37.488Z,1.67
2022-08-08T21:41:05.689Z,1.70
2022-08-08T21:43:35.616Z,2.00
2022-08-08T21:48:08.061Z,1.73
2022-08-08T21:48:55.181Z,2.23
2022-08-08T21:54:17.251Z,1.97
2022-08-08T21:54:30.707Z,1.53
2022-08-08T21:57:02.772Z,2.10
2022-08-08T21:59:43.747Z,2.07
2022-08-08T22:02:24.077Z,1.93
2022-08-08T22:04:58.578Z,2.10
2022-08-08T22:07:39.496Z,1.90
2022-08-08T22:10:09.684Z,2.03
2022-08-08T22:12:38.973Z,1.90
2022-08-08T22:15:08.639Z,2.00
2022-08-08T22:17:45.742Z,2.13
2022-08-08T22:20:23.642Z,2.03
2022-08-08T22:22:56.588Z,1.80
2022-08-08T22:26:20.385Z,1.60
2022-08-08T22:29:14.283Z,2.37
2022-08-08T22:31:09.051Z,2.10
2022-08-08T22:34:12.437Z,1.80
2022-08-08T22:36:32.367Z,2.20
2022-08-08T22:39:06.596Z,1.73
2022-08-08T22:41:35.035Z,2.03
2022-08-08T22:44:07.427Z,2.37
2022-08-08T22:46:38.885Z,2.07
2022-08-08T22:49:09.313Z,1.90
2022-08-08T22:51:42.608Z,2.13
2022-08-08T22:54:31.953Z,2.10
2022-08-08T22:57:08.668Z,1.70
2022-08-08T22:59:52.716Z,2.00
2022-08-08T23:02:29.045Z,2.50
2022-08-08T23:04:58.580Z,1.87
2022-08-08T23:07:51.276Z,2.50
2022-08-08T23:10:25.538Z,1.70
2022-08-08T23:12:56.008Z,2.20
2022-08-08T23:16:40.858Z,2.37
2022-08-08T23:18:12.554Z,1.97
2022-08-08T23:20:43.467Z,2.20
2022-08-08T23:23:13.819Z,2.20
2022-08-08T23:25:45.231Z,2.10
2022-08-08T23:28:18.686Z,2.20
2022-08-08T23:30:47.311Z,2.20
2022-08-08T23:33:35.739Z,2.13
2022-08-08T23:36:08.567Z,2.13
2022-08-08T23:38:43.992Z,2.07
2022-08-08T23:41:24.451Z,2.17
2022-08-08T23:43:54.289Z,2.30
2022-08-08T23:49:07.764Z,2.17
2022-08-08T23:49:15.140Z,2.30
2022-08-08T23:52:04.338Z,2.30
2022-08-08T23:54:42.087Z,2.47
2022-08-08T23:57:26.458Z,2.40
